sensor_id;sensor_type;location;lat;lon;timestamp;P1;durP1;ratioP1;P2;durP2;ratioP2
679;SDS011;322;48.846;9.230;2023-05-07T00:00:24;7.00;;;6.40;;
679;SDS011;322;48.846;9.230;2023-05-07T00:02:50;7.50;;;6.80;;
679;SDS011;322;48.846;9.230;2023-05-07T00:05:17;7.73;;;7.03;;
679;SDS011;322;48.846;9.230;2023-05-07T00:07:46;7.10;;;6.40;;
679;SDS011;322;48.846;9.230;2023-05-07T00:10:14;8.57;;;6.93;;
679;SDS011;322;48.846;9.230;2023-05-07T00:12:41;8.40;;;6.73;;
679;SDS011;322;48.846;9.230;2023-05-07T00:15:08;7.03;;;6.43;;
679;SDS011;322;48.846;9.230;2023-05-07T00:17:35;8.37;;;6.20;;
679;SDS011;322;48.846;9.230;2023-05-07T00:20:03;7.20;;;6.50;;
679;SDS011;322;48.846;9.230;2023-05-07T00:22:30;7.13;;;6.53;;
679;SDS011;322;48.846;9.230;2023-05-07T00:24:57;11.03;;;6.50;;
679;SDS011;322;48.846;9.230;2023-05-07T00:27:26;7.60;;;6.97;;
679;SDS011;322;48.846;9.230;2023-05-07T00:29:53;7.23;;;6.53;;
679;SDS011;322;48.846;9.230;2023-05-07T00:32:20;6.70;;;6.20;;
679;SDS011;322;48.846;9.230;2023-05-07T00:34:46;7.60;;;6.17;;
679;SDS011;322;48.846;9.230;2023-05-07T00:37:14;8.73;;;6.83;;
679;SDS011;322;48.846;9.230;2023-05-07T00:39:41;6.17;;;5.57;;
679;SDS011;322;48.846;9.230;2023-05-07T00:42:07;7.07;;;6.40;;
679;SDS011;322;48.846;9.230;2023-05-07T00:44:36;8.63;;;6.43;;
679;SDS011;322;48.846;9.230;2023-05-07T00:47:09;6.83;;;6.13;;
679;SDS011;322;48.846;9.230;2023-05-07T00:49:37;7.43;;;6.70;;
679;SDS011;322;48.846;9.230;2023-05-07T00:52:06;8.10;;;7.40;;
679;SDS011;322;48.846;9.230;2023-05-07T00:54:33;7.80;;;7.10;;
679;SDS011;322;48.846;9.230;2023-05-07T00:57:01;8.80;;;7.90;;
679;SDS011;322;48.846;9.230;2023-05-07T00:59:28;8.47;;;7.67;;
679;SDS011;322;48.846;9.230;2023-05-07T01:01:57;9.40;;;8.50;;
679;SDS011;322;48.846;9.230;2023-05-07T01:04:25;8.87;;;7.97;;
679;SDS011;322;48.846;9.230;2023-05-07T01:06:52;9.83;;;7.87;;
679;SDS011;322;48.846;9.230;2023-05-07T01:09:21;9.20;;;8.17;;
679;SDS011;322;48.846;9.230;2023-05-07T01:11:49;8.70;;;7.87;;
679;SDS011;322;48.846;9.230;2023-05-07T01:14:16;11.03;;;9.90;;
679;SDS011;322;48.846;9.230;2023-05-07T01:16:45;9.33;;;8.10;;
679;SDS011;322;48.846;9.230;2023-05-07T01:19:13;9.10;;;8.00;;
679;SDS011;322;48.846;9.230;2023-05-07T01:21:43;10.27;;;8.80;;
679;SDS011;322;48.846;9.230;2023-05-07T01:24:14;8.90;;;8.00;;
679;SDS011;322;48.846;9.230;2023-05-07T01:26:42;8.67;;;7.67;;
679;SDS011;322;48.846;9.230;2023-05-07T01:29:10;8.80;;;7.90;;
679;SDS011;322;48.846;9.230;2023-05-07T01:31:37;9.80;;;8.90;;
679;SDS011;322;48.846;9.230;2023-05-07T01:34:04;8.60;;;7.67;;
679;SDS011;322;48.846;9.230;2023-05-07T01:36:33;10.30;;;9.30;;
679;SDS011;322;48.846;9.230;2023-05-07T01:39:01;8.73;;;7.93;;
679;SDS011;322;48.846;9.230;2023-05-07T01:41:29;11.07;;;9.20;;
679;SDS011;322;48.846;9.230;2023-05-07T01:43:57;8.47;;;7.77;;
679;SDS011;322;48.846;9.230;2023-05-07T01:46:25;9.70;;;8.73;;
679;SDS011;322;48.846;9.230;2023-05-07T01:48:52;8.77;;;7.93;;
679;SDS011;322;48.846;9.230;2023-05-07T01:51:21;17.70;;;8.37;;
679;SDS011;322;48.846;9.230;2023-05-07T01:53:48;7.53;;;6.83;;
679;SDS011;322;48.846;9.230;2023-05-07T01:56:16;8.30;;;7.60;;
679;SDS011;322;48.846;9.230;2023-05-07T01:58:44;8.20;;;7.27;;
679;SDS011;322;48.846;9.230;2023-05-07T02:01:12;7.40;;;6.80;;
679;SDS011;322;48.846;9.230;2023-05-07T02:03:39;8.97;;;7.93;;
679;SDS011;322;48.846;9.230;2023-05-07T02:06:06;8.20;;;7.40;;
679;SDS011;322;48.846;9.230;2023-05-07T02:08:33;8.13;;;6.87;;
679;SDS011;322;48.846;9.230;2023-05-07T02:10:59;7.33;;;6.63;;
679;SDS011;322;48.846;9.230;2023-05-07T02:13:28;7.10;;;6.50;;
679;SDS011;322;48.846;9.230;2023-05-07T02:15:57;8.27;;;7.37;;
679;SDS011;322;48.846;9.230;2023-05-07T02:18:24;8.97;;;7.97;;
679;SDS011;322;48.846;9.230;2023-05-07T02:20:50;9.37;;;8.10;;
679;SDS011;322;48.846;9.230;2023-05-07T02:23:17;8.20;;;7.40;;
679;SDS011;322;48.846;9.230;2023-05-07T02:25:44;7.70;;;6.90;;
679;SDS011;322;48.846;9.230;2023-05-07T02:28:11;7.30;;;6.37;;
679;SDS011;322;48.846;9.230;2023-05-07T02:30:38;8.20;;;7.10;;
679;SDS011;322;48.846;9.230;2023-05-07T02:33:06;6.90;;;6.30;;
679;SDS011;322;48.846;9.230;2023-05-07T02:35:33;7.60;;;6.90;;
679;SDS011;322;48.846;9.230;2023-05-07T02:38:00;8.30;;;7.53;;
679;SDS011;322;48.846;9.230;2023-05-07T02:40:27;11.63;;;7.40;;
679;SDS011;322;48.846;9.230;2023-05-07T02:42:54;7.47;;;6.77;;
679;SDS011;322;48.846;9.230;2023-05-07T02:45:21;7.33;;;6.40;;
679;SDS011;322;48.846;9.230;2023-05-07T02:47:48;7.60;;;6.63;;
679;SDS011;322;48.846;9.230;2023-05-07T02:50:16;7.40;;;6.70;;
679;SDS011;322;48.846;9.230;2023-05-07T02:52:43;8.13;;;7.33;;
679;SDS011;322;48.846;9.230;2023-05-07T02:55:10;8.33;;;6.00;;
679;SDS011;322;48.846;9.230;2023-05-07T02:57:37;7.47;;;6.77;;
679;SDS011;322;48.846;9.230;2023-05-07T03:00:10;7.87;;;6.03;;
679;SDS011;322;48.846;9.230;2023-05-07T03:02:38;7.10;;;6.50;;
679;SDS011;322;48.846;9.230;2023-05-07T03:05:06;8.20;;;7.50;;
679;SDS011;322;48.846;9.230;2023-05-07T03:07:34;7.20;;;6.50;;
679;SDS011;322;48.846;9.230;2023-05-07T03:10:01;7.40;;;6.73;;
679;SDS011;322;48.846;9.230;2023-05-07T03:12:28;7.40;;;6.70;;
679;SDS011;322;48.846;9.230;2023-05-07T03:14:56;7.97;;;7.27;;
679;SDS011;322;48.846;9.230;2023-05-07T03:17:23;7.50;;;6.80;;
679;SDS011;322;48.846;9.230;2023-05-07T03:19:50;10.07;;;7.10;;
679;SDS011;322;48.846;9.230;2023-05-07T03:22:16;10.80;;;8.37;;
679;SDS011;322;48.846;9.230;2023-05-07T03:24:45;12.60;;;7.77;;
679;SDS011;322;48.846;9.230;2023-05-07T03:27:11;9.03;;;8.13;;
679;SDS011;322;48.846;9.230;2023-05-07T03:29:38;10.07;;;8.10;;
679;SDS011;322;48.846;9.230;2023-05-07T03:32:05;7.87;;;7.27;;
679;SDS011;322;48.846;9.230;2023-05-07T03:34:32;14.50;;;7.40;;
679;SDS011;322;48.846;9.230;2023-05-07T03:36:59;8.80;;;8.03;;
679;SDS011;322;48.846;9.230;2023-05-07T03:39:26;8.53;;;7.73;;
679;SDS011;322;48.846;9.230;2023-05-07T03:41:54;8.43;;;7.63;;
679;SDS011;322;48.846;9.230;2023-05-07T03:44:21;8.43;;;7.70;;
679;SDS011;322;48.846;9.230;2023-05-07T03:46:48;8.23;;;7.57;;
679;SDS011;322;48.846;9.230;2023-05-07T03:49:15;8.73;;;7.80;;
679;SDS011;322;48.846;9.230;2023-05-07T03:51:42;7.40;;;6.70;;
679;SDS011;322;48.846;9.230;2023-05-07T03:54:09;9.07;;;6.70;;
679;SDS011;322;48.846;9.230;2023-05-07T03:56:35;6.87;;;6.27;;
679;SDS011;322;48.846;9.230;2023-05-07T03:59:04;8.47;;;7.23;;
679;SDS011;322;48.846;9.230;2023-05-07T04:01:30;8.47;;;7.60;;
679;SDS011;322;48.846;9.230;2023-05-07T04:03:57;8.00;;;7.20;;
679;SDS011;322;48.846;9.230;2023-05-07T04:06:24;9.37;;;6.30;;
679;SDS011;322;48.846;9.230;2023-05-07T04:08:51;7.43;;;6.73;;
679;SDS011;322;48.846;9.230;2023-05-07T04:11:18;10.00;;;7.40;;
679;SDS011;322;48.846;9.230;2023-05-07T04:13:45;8.97;;;5.60;;
679;SDS011;322;48.846;9.230;2023-05-07T04:16:13;6.90;;;5.97;;
679;SDS011;322;48.846;9.230;2023-05-07T04:18:40;6.80;;;6.10;;
679;SDS011;322;48.846;9.230;2023-05-07T04:21:13;7.60;;;6.90;;
679;SDS011;322;48.846;9.230;2023-05-07T04:23:40;7.50;;;6.80;;
679;SDS011;322;48.846;9.230;2023-05-07T04:26:07;6.90;;;6.20;;
679;SDS011;322;48.846;9.230;2023-05-07T04:28:34;6.30;;;5.67;;
679;SDS011;322;48.846;9.230;2023-05-07T04:31:01;7.00;;;6.40;;
679;SDS011;322;48.846;9.230;2023-05-07T04:33:29;6.40;;;5.80;;
679;SDS011;322;48.846;9.230;2023-05-07T04:35:56;7.93;;;6.70;;
679;SDS011;322;48.846;9.230;2023-05-07T04:38:27;6.17;;;5.60;;
679;SDS011;322;48.846;9.230;2023-05-07T04:40:54;6.03;;;5.50;;
679;SDS011;322;48.846;9.230;2023-05-07T04:43:21;6.17;;;5.63;;
679;SDS011;322;48.846;9.230;2023-05-07T04:45:49;5.93;;;5.40;;
679;SDS011;322;48.846;9.230;2023-05-07T04:48:16;6.63;;;6.00;;
679;SDS011;322;48.846;9.230;2023-05-07T04:50:45;6.27;;;5.63;;
679;SDS011;322;48.846;9.230;2023-05-07T04:53:13;6.30;;;5.27;;
679;SDS011;322;48.846;9.230;2023-05-07T04:55:40;6.43;;;5.60;;
679;SDS011;322;48.846;9.230;2023-05-07T04:58:07;8.03;;;5.87;;
679;SDS011;322;48.846;9.230;2023-05-07T05:00:34;5.77;;;5.27;;
679;SDS011;322;48.846;9.230;2023-05-07T05:03:01;5.67;;;5.17;;
679;SDS011;322;48.846;9.230;2023-05-07T05:05:28;6.27;;;5.77;;
679;SDS011;322;48.846;9.230;2023-05-07T05:07:56;5.50;;;5.00;;
679;SDS011;322;48.846;9.230;2023-05-07T05:10:23;5.80;;;4.93;;
679;SDS011;322;48.846;9.230;2023-05-07T05:12:50;5.07;;;4.67;;
679;SDS011;322;48.846;9.230;2023-05-07T05:15:17;6.03;;;4.57;;
679;SDS011;322;48.846;9.230;2023-05-07T05:17:44;4.93;;;4.53;;
679;SDS011;322;48.846;9.230;2023-05-07T05:20:11;5.47;;;4.97;;
679;SDS011;322;48.846;9.230;2023-05-07T05:22:37;5.23;;;4.80;;
679;SDS011;322;48.846;9.230;2023-05-07T05:25:06;6.00;;;5.50;;
679;SDS011;322;48.846;9.230;2023-05-07T05:27:33;6.37;;;5.13;;
679;SDS011;322;48.846;9.230;2023-05-07T05:30:00;5.30;;;4.90;;
679;SDS011;322;48.846;9.230;2023-05-07T05:32:27;7.20;;;5.30;;
679;SDS011;322;48.846;9.230;2023-05-07T05:34:54;4.80;;;4.40;;
679;SDS011;322;48.846;9.230;2023-05-07T05:37:21;6.70;;;4.80;;
679;SDS011;322;48.846;9.230;2023-05-07T05:39:48;6.80;;;4.90;;
679;SDS011;322;48.846;9.230;2023-05-07T05:42:16;5.20;;;4.73;;
679;SDS011;322;48.846;9.230;2023-05-07T05:44:43;5.20;;;4.80;;
679;SDS011;322;48.846;9.230;2023-05-07T05:47:10;4.17;;;3.77;;
679;SDS011;322;48.846;9.230;2023-05-07T05:49:37;4.87;;;4.47;;
679;SDS011;322;48.846;9.230;2023-05-07T05:52:04;4.70;;;4.13;;
679;SDS011;322;48.846;9.230;2023-05-07T05:54:30;6.83;;;4.43;;
679;SDS011;322;48.846;9.230;2023-05-07T05:56:57;4.90;;;4.40;;
679;SDS011;322;48.846;9.230;2023-05-07T05:59:25;4.80;;;4.40;;
679;SDS011;322;48.846;9.230;2023-05-07T06:01:52;4.53;;;4.13;;
679;SDS011;322;48.846;9.230;2023-05-07T06:04:19;5.47;;;4.70;;
679;SDS011;322;48.846;9.230;2023-05-07T06:06:46;5.03;;;3.90;;
679;SDS011;322;48.846;9.230;2023-05-07T06:09:13;4.50;;;4.03;;
679;SDS011;322;48.846;9.230;2023-05-07T06:11:39;5.07;;;4.63;;
679;SDS011;322;48.846;9.230;2023-05-07T06:14:06;4.40;;;4.10;;
679;SDS011;322;48.846;9.230;2023-05-07T06:16:34;8.47;;;5.20;;
679;SDS011;322;48.846;9.230;2023-05-07T06:19:03;4.87;;;4.50;;
679;SDS011;322;48.846;9.230;2023-05-07T06:21:29;5.90;;;4.47;;
679;SDS011;322;48.846;9.230;2023-05-07T06:23:56;6.17;;;4.63;;
679;SDS011;322;48.846;9.230;2023-05-07T06:26:23;4.80;;;4.30;;
679;SDS011;322;48.846;9.230;2023-05-07T06:28:50;4.57;;;4.17;;
679;SDS011;322;48.846;9.230;2023-05-07T06:31:17;4.90;;;4.50;;
679;SDS011;322;48.846;9.230;2023-05-07T06:33:47;5.30;;;4.10;;
679;SDS011;322;48.846;9.230;2023-05-07T06:36:14;4.20;;;3.80;;
679;SDS011;322;48.846;9.230;2023-05-07T06:38:42;5.60;;;4.53;;
679;SDS011;322;48.846;9.230;2023-05-07T06:41:08;4.70;;;4.30;;
679;SDS011;322;48.846;9.230;2023-05-07T06:43:35;6.40;;;5.80;;
679;SDS011;322;48.846;9.230;2023-05-07T06:46:02;4.33;;;3.93;;
679;SDS011;322;48.846;9.230;2023-05-07T06:48:29;4.30;;;3.90;;
679;SDS011;322;48.846;9.230;2023-05-07T06:50:57;4.40;;;4.00;;
679;SDS011;322;48.846;9.230;2023-05-07T06:53:24;4.20;;;3.90;;
679;SDS011;322;48.846;9.230;2023-05-07T06:55:51;4.30;;;4.00;;
679;SDS011;322;48.846;9.230;2023-05-07T06:58:19;5.40;;;4.20;;
679;SDS011;322;48.846;9.230;2023-05-07T07:00:45;4.47;;;4.07;;
679;SDS011;322;48.846;9.230;2023-05-07T07:03:12;4.37;;;3.97;;
679;SDS011;322;48.846;9.230;2023-05-07T07:05:39;3.73;;;3.43;;
679;SDS011;322;48.846;9.230;2023-05-07T07:08:09;3.47;;;3.27;;
679;SDS011;322;48.846;9.230;2023-05-07T07:10:36;3.57;;;3.20;;
679;SDS011;322;48.846;9.230;2023-05-07T07:13:03;3.83;;;3.53;;
679;SDS011;322;48.846;9.230;2023-05-07T07:15:30;4.13;;;3.70;;
679;SDS011;322;48.846;9.230;2023-05-07T07:17:56;3.90;;;3.50;;
679;SDS011;322;48.846;9.230;2023-05-07T07:20:23;4.40;;;3.73;;
679;SDS011;322;48.846;9.230;2023-05-07T07:22:52;4.37;;;3.87;;
679;SDS011;322;48.846;9.230;2023-05-07T07:25:20;4.63;;;4.23;;
679;SDS011;322;48.846;9.230;2023-05-07T07:27:47;4.23;;;3.83;;
679;SDS011;322;48.846;9.230;2023-05-07T07:30:14;5.33;;;4.13;;
679;SDS011;322;48.846;9.230;2023-05-07T07:32:40;4.87;;;4.37;;
679;SDS011;322;48.846;9.230;2023-05-07T07:35:08;4.33;;;4.00;;
679;SDS011;322;48.846;9.230;2023-05-07T07:37:35;6.53;;;4.70;;
679;SDS011;322;48.846;9.230;2023-05-07T07:40:02;4.00;;;3.57;;
679;SDS011;322;48.846;9.230;2023-05-07T07:42:30;4.60;;;4.20;;
679;SDS011;322;48.846;9.230;2023-05-07T07:44:57;3.37;;;3.17;;
679;SDS011;322;48.846;9.230;2023-05-07T07:47:24;4.13;;;3.30;;
679;SDS011;322;48.846;9.230;2023-05-07T07:49:51;3.33;;;3.13;;
679;SDS011;322;48.846;9.230;2023-05-07T07:52:17;4.00;;;3.40;;
679;SDS011;322;48.846;9.230;2023-05-07T07:54:45;3.53;;;3.23;;
679;SDS011;322;48.846;9.230;2023-05-07T07:57:11;4.20;;;3.17;;
679;SDS011;322;48.846;9.230;2023-05-07T07:59:40;4.10;;;3.80;;
679;SDS011;322;48.846;9.230;2023-05-07T08:02:08;3.90;;;3.50;;
679;SDS011;322;48.846;9.230;2023-05-07T08:04:35;3.60;;;3.33;;
679;SDS011;322;48.846;9.230;2023-05-07T08:07:02;3.63;;;3.33;;
679;SDS011;322;48.846;9.230;2023-05-07T08:09:29;3.47;;;3.17;;
679;SDS011;322;48.846;9.230;2023-05-07T08:11:56;4.00;;;3.47;;
679;SDS011;322;48.846;9.230;2023-05-07T08:14:22;3.87;;;3.57;;
679;SDS011;322;48.846;9.230;2023-05-07T08:16:51;4.10;;;3.70;;
679;SDS011;322;48.846;9.230;2023-05-07T08:19:17;3.87;;;3.57;;
679;SDS011;322;48.846;9.230;2023-05-07T08:21:44;3.70;;;3.40;;
679;SDS011;322;48.846;9.230;2023-05-07T08:24:12;4.30;;;3.30;;
679;SDS011;322;48.846;9.230;2023-05-07T08:26:39;4.60;;;3.70;;
679;SDS011;322;48.846;9.230;2023-05-07T08:29:06;4.70;;;3.90;;
679;SDS011;322;48.846;9.230;2023-05-07T08:31:33;3.80;;;3.50;;
679;SDS011;322;48.846;9.230;2023-05-07T08:34:02;3.60;;;3.30;;
679;SDS011;322;48.846;9.230;2023-05-07T08:36:29;4.43;;;3.50;;
679;SDS011;322;48.846;9.230;2023-05-07T08:38:56;5.60;;;3.77;;
679;SDS011;322;48.846;9.230;2023-05-07T08:41:23;4.40;;;4.00;;
679;SDS011;322;48.846;9.230;2023-05-07T08:43:50;3.60;;;3.40;;
679;SDS011;322;48.846;9.230;2023-05-07T08:46:18;3.93;;;3.63;;
679;SDS011;322;48.846;9.230;2023-05-07T08:48:47;4.47;;;4.03;;
679;SDS011;322;48.846;9.230;2023-05-07T08:51:16;5.13;;;4.70;;
679;SDS011;322;48.846;9.230;2023-05-07T08:53:45;5.10;;;4.20;;
679;SDS011;322;48.846;9.230;2023-05-07T08:56:13;4.33;;;4.03;;
679;SDS011;322;48.846;9.230;2023-05-07T08:58:43;4.10;;;3.70;;
679;SDS011;322;48.846;9.230;2023-05-07T09:01:13;5.27;;;4.80;;
679;SDS011;322;48.846;9.230;2023-05-07T09:03:41;5.93;;;4.03;;
679;SDS011;322;48.846;9.230;2023-05-07T09:06:11;4.70;;;4.30;;
679;SDS011;322;48.846;9.230;2023-05-07T09:08:39;4.80;;;4.40;;
679;SDS011;322;48.846;9.230;2023-05-07T09:11:06;4.43;;;4.03;;
679;SDS011;322;48.846;9.230;2023-05-07T09:13:33;4.30;;;4.00;;
679;SDS011;322;48.846;9.230;2023-05-07T09:16:09;4.23;;;3.93;;
679;SDS011;322;48.846;9.230;2023-05-07T09:18:40;4.00;;;3.70;;
679;SDS011;322;48.846;9.230;2023-05-07T09:21:09;4.63;;;4.23;;
679;SDS011;322;48.846;9.230;2023-05-07T09:23:36;4.43;;;4.03;;
679;SDS011;322;48.846;9.230;2023-05-07T09:26:05;3.97;;;3.43;;
679;SDS011;322;48.846;9.230;2023-05-07T09:28:37;4.00;;;3.70;;
679;SDS011;322;48.846;9.230;2023-05-07T09:31:06;4.30;;;3.90;;
679;SDS011;322;48.846;9.230;2023-05-07T09:33:33;4.70;;;4.30;;
679;SDS011;322;48.846;9.230;2023-05-07T09:36:01;4.17;;;3.87;;
679;SDS011;322;48.846;9.230;2023-05-07T09:38:30;4.63;;;4.23;;
679;SDS011;322;48.846;9.230;2023-05-07T09:41:01;5.47;;;5.00;;
679;SDS011;322;48.846;9.230;2023-05-07T09:43:32;4.30;;;3.90;;
679;SDS011;322;48.846;9.230;2023-05-07T09:46:01;3.97;;;3.63;;
679;SDS011;322;48.846;9.230;2023-05-07T09:48:29;4.60;;;4.20;;
679;SDS011;322;48.846;9.230;2023-05-07T09:50:56;3.60;;;3.20;;
679;SDS011;322;48.846;9.230;2023-05-07T09:53:28;4.83;;;4.47;;
679;SDS011;322;48.846;9.230;2023-05-07T09:55:56;4.07;;;3.80;;
679;SDS011;322;48.846;9.230;2023-05-07T09:58:23;3.90;;;3.60;;
679;SDS011;322;48.846;9.230;2023-05-07T10:00:53;4.50;;;3.80;;
679;SDS011;322;48.846;9.230;2023-05-07T10:03:22;4.00;;;3.70;;
679;SDS011;322;48.846;9.230;2023-05-07T10:05:50;4.10;;;3.70;;
679;SDS011;322;48.846;9.230;2023-05-07T10:08:19;3.50;;;3.20;;
679;SDS011;322;48.846;9.230;2023-05-07T10:10:46;3.97;;;3.67;;
679;SDS011;322;48.846;9.230;2023-05-07T10:13:13;4.33;;;3.97;;
679;SDS011;322;48.846;9.230;2023-05-07T10:15:40;3.37;;;3.17;;
679;SDS011;322;48.846;9.230;2023-05-07T10:18:09;3.20;;;3.00;;
679;SDS011;322;48.846;9.230;2023-05-07T10:20:37;3.50;;;3.20;;
679;SDS011;322;48.846;9.230;2023-05-07T10:23:05;4.00;;;3.60;;
679;SDS011;322;48.846;9.230;2023-05-07T10:25:34;3.70;;;3.40;;
679;SDS011;322;48.846;9.230;2023-05-07T10:28:03;6.00;;;3.87;;
679;SDS011;322;48.846;9.230;2023-05-07T10:30:37;4.30;;;3.00;;
679;SDS011;322;48.846;9.230;2023-05-07T10:33:13;3.30;;;3.00;;
679;SDS011;322;48.846;9.230;2023-05-07T10:35:43;4.20;;;3.80;;
679;SDS011;322;48.846;9.230;2023-05-07T10:38:12;3.50;;;3.20;;
679;SDS011;322;48.846;9.230;2023-05-07T10:40:39;4.70;;;2.73;;
679;SDS011;322;48.846;9.230;2023-05-07T10:43:06;3.10;;;2.80;;
679;SDS011;322;48.846;9.230;2023-05-07T10:45:33;3.80;;;3.10;;
679;SDS011;322;48.846;9.230;2023-05-07T10:48:07;3.47;;;3.17;;
679;SDS011;322;48.846;9.230;2023-05-07T10:50:39;3.67;;;3.37;;
679;SDS011;322;48.846;9.230;2023-05-07T10:53:22;3.47;;;3.00;;
679;SDS011;322;48.846;9.230;2023-05-07T10:58:54;3.20;;;2.90;;
679;SDS011;322;48.846;9.230;2023-05-07T11:04:19;3.27;;;3.07;;
679;SDS011;322;48.846;9.230;2023-05-07T11:10:00;4.10;;;3.50;;
679;SDS011;322;48.846;9.230;2023-05-07T11:12:51;3.10;;;2.90;;
679;SDS011;322;48.846;9.230;2023-05-07T11:15:41;3.50;;;2.90;;
679;SDS011;322;48.846;9.230;2023-05-07T11:18:10;3.90;;;3.27;;
679;SDS011;322;48.846;9.230;2023-05-07T11:20:48;3.13;;;2.93;;
679;SDS011;322;48.846;9.230;2023-05-07T11:26:24;3.43;;;2.90;;
679;SDS011;322;48.846;9.230;2023-05-07T11:28:52;3.53;;;3.23;;
679;SDS011;322;48.846;9.230;2023-05-07T11:31:20;3.57;;;2.97;;
679;SDS011;322;48.846;9.230;2023-05-07T11:33:48;6.73;;;3.57;;
679;SDS011;322;48.846;9.230;2023-05-07T11:36:15;4.23;;;3.27;;
679;SDS011;322;48.846;9.230;2023-05-07T11:38:42;3.73;;;2.90;;
679;SDS011;322;48.846;9.230;2023-05-07T11:41:10;3.37;;;3.07;;
679;SDS011;322;48.846;9.230;2023-05-07T11:43:38;3.50;;;3.20;;
679;SDS011;322;48.846;9.230;2023-05-07T11:46:19;4.50;;;3.47;;
679;SDS011;322;48.846;9.230;2023-05-07T11:48:46;3.93;;;3.63;;
679;SDS011;322;48.846;9.230;2023-05-07T11:51:13;3.70;;;3.27;;
679;SDS011;322;48.846;9.230;2023-05-07T11:53:45;4.90;;;3.23;;
679;SDS011;322;48.846;9.230;2023-05-07T11:56:14;2.97;;;2.77;;
679;SDS011;322;48.846;9.230;2023-05-07T11:58:43;3.57;;;2.37;;
679;SDS011;322;48.846;9.230;2023-05-07T12:01:11;3.10;;;2.60;;
679;SDS011;322;48.846;9.230;2023-05-07T12:03:40;3.03;;;2.73;;
679;SDS011;322;48.846;9.230;2023-05-07T12:06:09;3.10;;;2.83;;
679;SDS011;322;48.846;9.230;2023-05-07T12:08:37;6.07;;;2.47;;
679;SDS011;322;48.846;9.230;2023-05-07T12:11:07;3.10;;;2.80;;
679;SDS011;322;48.846;9.230;2023-05-07T12:13:37;3.10;;;2.87;;
679;SDS011;322;48.846;9.230;2023-05-07T12:16:05;3.77;;;2.83;;
679;SDS011;322;48.846;9.230;2023-05-07T12:18:33;7.20;;;2.90;;
679;SDS011;322;48.846;9.230;2023-05-07T12:21:02;3.40;;;3.10;;
679;SDS011;322;48.846;9.230;2023-05-07T12:23:30;5.40;;;2.87;;
679;SDS011;322;48.846;9.230;2023-05-07T12:25:57;5.30;;;2.53;;
679;SDS011;322;48.846;9.230;2023-05-07T12:28:25;3.17;;;2.77;;
679;SDS011;322;48.846;9.230;2023-05-07T12:30:54;3.40;;;3.10;;
679;SDS011;322;48.846;9.230;2023-05-07T12:33:23;4.80;;;2.67;;
679;SDS011;322;48.846;9.230;2023-05-07T12:35:52;3.00;;;2.70;;
679;SDS011;322;48.846;9.230;2023-05-07T12:38:20;5.13;;;3.47;;
679;SDS011;322;48.846;9.230;2023-05-07T12:40:47;3.57;;;3.27;;
679;SDS011;322;48.846;9.230;2023-05-07T12:43:16;3.23;;;2.90;;
679;SDS011;322;48.846;9.230;2023-05-07T12:45:44;4.47;;;2.93;;
679;SDS011;322;48.846;9.230;2023-05-07T12:48:14;5.50;;;3.80;;
679;SDS011;322;48.846;9.230;2023-05-07T12:50:40;4.37;;;3.97;;
679;SDS011;322;48.846;9.230;2023-05-07T12:53:08;4.70;;;4.30;;
679;SDS011;322;48.846;9.230;2023-05-07T12:55:40;3.53;;;3.23;;
679;SDS011;322;48.846;9.230;2023-05-07T12:58:08;5.97;;;3.47;;
679;SDS011;322;48.846;9.230;2023-05-07T13:00:41;3.63;;;3.33;;
679;SDS011;322;48.846;9.230;2023-05-07T13:03:08;4.27;;;3.43;;
679;SDS011;322;48.846;9.230;2023-05-07T13:05:37;6.23;;;4.27;;
679;SDS011;322;48.846;9.230;2023-05-07T13:08:04;6.07;;;4.10;;
679;SDS011;322;48.846;9.230;2023-05-07T13:10:30;5.20;;;4.80;;
679;SDS011;322;48.846;9.230;2023-05-07T13:12:59;5.50;;;5.00;;
679;SDS011;322;48.846;9.230;2023-05-07T13:15:25;6.10;;;3.90;;
679;SDS011;322;48.846;9.230;2023-05-07T13:17:53;5.57;;;3.53;;
679;SDS011;322;48.846;9.230;2023-05-07T13:20:20;4.27;;;3.03;;
679;SDS011;322;48.846;9.230;2023-05-07T13:22:48;2.80;;;2.60;;
679;SDS011;322;48.846;9.230;2023-05-07T13:25:15;2.77;;;2.13;;
679;SDS011;322;48.846;9.230;2023-05-07T13:27:42;2.60;;;2.33;;
679;SDS011;322;48.846;9.230;2023-05-07T13:30:09;2.17;;;2.00;;
679;SDS011;322;48.846;9.230;2023-05-07T13:32:36;2.83;;;2.10;;
679;SDS011;322;48.846;9.230;2023-05-07T13:35:03;5.60;;;2.57;;
679;SDS011;322;48.846;9.230;2023-05-07T13:37:30;4.73;;;3.20;;
679;SDS011;322;48.846;9.230;2023-05-07T13:39:58;2.57;;;2.37;;
679;SDS011;322;48.846;9.230;2023-05-07T13:42:25;2.30;;;2.10;;
679;SDS011;322;48.846;9.230;2023-05-07T13:44:52;5.27;;;2.40;;
679;SDS011;322;48.846;9.230;2023-05-07T13:47:19;4.90;;;2.57;;
679;SDS011;322;48.846;9.230;2023-05-07T13:49:45;3.10;;;2.40;;
679;SDS011;322;48.846;9.230;2023-05-07T13:52:14;3.23;;;1.97;;
679;SDS011;322;48.846;9.230;2023-05-07T13:54:41;1.73;;;1.40;;
679;SDS011;322;48.846;9.230;2023-05-07T13:57:09;1.33;;;1.23;;
679;SDS011;322;48.846;9.230;2023-05-07T13:59:36;1.73;;;1.23;;
679;SDS011;322;48.846;9.230;2023-05-07T14:02:03;3.43;;;1.37;;
679;SDS011;322;48.846;9.230;2023-05-07T14:04:30;2.57;;;1.80;;
679;SDS011;322;48.846;9.230;2023-05-07T14:06:57;6.40;;;1.73;;
679;SDS011;322;48.846;9.230;2023-05-07T14:09:24;3.97;;;2.47;;
679;SDS011;322;48.846;9.230;2023-05-07T14:11:50;2.40;;;1.70;;
679;SDS011;322;48.846;9.230;2023-05-07T14:14:19;4.80;;;2.03;;
679;SDS011;322;48.846;9.230;2023-05-07T14:16:46;3.83;;;2.03;;
679;SDS011;322;48.846;9.230;2023-05-07T14:19:12;6.43;;;2.63;;
679;SDS011;322;48.846;9.230;2023-05-07T14:21:39;2.67;;;1.87;;
679;SDS011;322;48.846;9.230;2023-05-07T14:24:07;4.33;;;2.10;;
679;SDS011;322;48.846;9.230;2023-05-07T14:26:34;4.10;;;2.70;;
679;SDS011;322;48.846;9.230;2023-05-07T14:29:01;2.70;;;2.50;;
679;SDS011;322;48.846;9.230;2023-05-07T14:31:29;6.50;;;2.43;;
679;SDS011;322;48.846;9.230;2023-05-07T14:33:56;2.83;;;2.33;;
679;SDS011;322;48.846;9.230;2023-05-07T14:36:24;4.00;;;2.57;;
679;SDS011;322;48.846;9.230;2023-05-07T14:38:51;5.07;;;3.60;;
679;SDS011;322;48.846;9.230;2023-05-07T14:41:18;4.10;;;3.70;;
679;SDS011;322;48.846;9.230;2023-05-07T14:43:45;4.00;;;3.37;;
679;SDS011;322;48.846;9.230;2023-05-07T14:46:15;10.87;;;9.77;;
679;SDS011;322;48.846;9.230;2023-05-07T14:48:44;6.37;;;5.37;;
679;SDS011;322;48.846;9.230;2023-05-07T14:51:11;6.27;;;5.70;;
679;SDS011;322;48.846;9.230;2023-05-07T14:53:38;7.70;;;7.10;;
679;SDS011;322;48.846;9.230;2023-05-07T14:56:07;5.40;;;5.00;;
679;SDS011;322;48.846;9.230;2023-05-07T14:58:34;7.30;;;6.60;;
679;SDS011;322;48.846;9.230;2023-05-07T15:01:01;11.40;;;10.10;;
679;SDS011;322;48.846;9.230;2023-05-07T15:03:27;6.77;;;4.87;;
679;SDS011;322;48.846;9.230;2023-05-07T15:05:56;7.00;;;4.23;;
679;SDS011;322;48.846;9.230;2023-05-07T15:08:23;4.17;;;3.77;;
679;SDS011;322;48.846;9.230;2023-05-07T15:10:50;5.93;;;4.33;;
679;SDS011;322;48.846;9.230;2023-05-07T15:13:16;4.80;;;4.30;;
679;SDS011;322;48.846;9.230;2023-05-07T15:15:44;4.63;;;4.20;;
679;SDS011;322;48.846;9.230;2023-05-07T15:18:11;4.40;;;3.40;;
679;SDS011;322;48.846;9.230;2023-05-07T15:20:38;4.20;;;3.80;;
679;SDS011;322;48.846;9.230;2023-05-07T15:23:07;5.70;;;4.20;;
679;SDS011;322;48.846;9.230;2023-05-07T15:25:36;4.97;;;3.47;;
679;SDS011;322;48.846;9.230;2023-05-07T15:28:03;4.60;;;3.10;;
679;SDS011;322;48.846;9.230;2023-05-07T15:30:30;3.37;;;3.07;;
679;SDS011;322;48.846;9.230;2023-05-07T15:32:57;3.00;;;2.53;;
679;SDS011;322;48.846;9.230;2023-05-07T15:35:25;4.80;;;2.60;;
679;SDS011;322;48.846;9.230;2023-05-07T15:37:52;4.93;;;3.07;;
679;SDS011;322;48.846;9.230;2023-05-07T15:40:20;4.60;;;3.30;;
679;SDS011;322;48.846;9.230;2023-05-07T15:42:47;8.40;;;5.80;;
679;SDS011;322;48.846;9.230;2023-05-07T15:45:14;5.53;;;5.03;;
679;SDS011;322;48.846;9.230;2023-05-07T15:47:41;4.90;;;4.40;;
679;SDS011;322;48.846;9.230;2023-05-07T15:50:08;4.63;;;4.20;;
679;SDS011;322;48.846;9.230;2023-05-07T15:52:36;4.70;;;4.30;;
679;SDS011;322;48.846;9.230;2023-05-07T15:55:03;4.77;;;4.20;;
679;SDS011;322;48.846;9.230;2023-05-07T15:57:32;4.40;;;3.90;;
679;SDS011;322;48.846;9.230;2023-05-07T15:59:59;4.77;;;3.57;;